Time;durP1;ratioP1;P1;durP2;ratioP2;P2;SDS_P1;SDS_P2;PMS_P1;PMS_P2;Temp;Humidity;BMP_temperature;BMP_pressure;BME280_temperature;BME280_humidity;BME280_pressure;Samples;Min_cycle;Max_cycle;Signal;HPM_P1;HPM_P2
2023/07/17 00:01:25;;;;;;;1.33;0.50;;;;;;;;;;5038924;28;20053;-62
2023/07/17 00:03:51;;;;;;;1.10;0.50;;;;;;;;;;5036874;28;20129;-62
2023/07/17 00:06:17;;;;;;;3.10;0.93;;;;;;;;;;5035141;28;20391;-62
2023/07/17 00:08:43;;;;;;;1.33;0.43;;;;;;;;;;5037571;28;20127;-62
2023/07/17 00:11:09;;;;;;;0.88;0.63;;;;;;;;;;5036881;28;20079;-63
2023/07/17 00:13:35;;;;;;;1.73;0.63;;;;;;;;;;5037848;28;20660;-62
2023/07/17 00:16:01;;;;;;;0.98;0.57;;;;;;;;;;5041031;28;20142;-62
2023/07/17 00:18:30;;;;;;;0.80;0.40;;;;;;;;;;5036289;28;20084;-62
2023/07/17 00:20:57;;;;;;;1.00;0.60;;;;;;;;;;5034887;28;20390;-62
2023/07/17 00:23:23;;;;;;;1.02;0.50;;;;;;;;;;5036756;28;20120;-62
2023/07/17 00:25:49;;;;;;;0.90;0.40;;;;;;;;;;5035270;28;20041;-62
2023/07/17 00:28:15;;;;;;;0.68;0.50;;;;;;;;;;5040252;28;20044;-62
2023/07/17 00:30:42;;;;;;;1.80;0.50;;;;;;;;;;5036783;28;20501;-62
2023/07/17 00:33:09;;;;;;;1.02;0.55;;;;;;;;;;5031971;28;20049;-62
2023/07/17 00:35:35;;;;;;;3.08;0.70;;;;;;;;;;5034597;28;20033;-62
2023/07/17 00:38:01;;;;;;;1.27;0.25;;;;;;;;;;5039621;28;20695;-62
2023/07/17 00:40:27;;;;;;;1.45;0.50;;;;;;;;;;5034087;28;20345;-62
2023/07/17 00:42:59;;;;;;;0.70;0.47;;;;;;;;;;5034862;28;20056;-62
2023/07/17 00:45:32;;;;;;;1.10;0.47;;;;;;;;;;5034690;28;20041;-62
2023/07/17 00:47:58;;;;;;;0.57;0.43;;;;;;;;;;5032015;28;20042;-62
2023/07/17 00:50:24;;;;;;;3.33;1.00;;;;;;;;;;5034697;28;20045;-63
2023/07/17 00:52:50;;;;;;;2.28;0.88;;;;;;;;;;5033537;28;20476;-63
2023/07/17 00:55:17;;;;;;;1.48;0.80;;;;;;;;;;5030782;28;20164;-63
2023/07/17 00:57:43;;;;;;;1.55;1.00;;;;;;;;;;5034983;28;20497;-62
2023/07/17 01:00:12;;;;;;;3.13;1.13;;;;;;;;;;5033690;28;20396;-62
2023/07/17 01:02:39;;;;;;;1.35;0.60;;;;;;;;;;5037025;28;20048;-62
2023/07/17 01:05:05;;;;;;;0.73;0.63;;;;;;;;;;5033341;28;20049;-63
2023/07/17 01:07:31;;;;;;;1.67;0.98;;;;;;;;;;5034849;28;20060;-62
2023/07/17 01:09:57;;;;;;;0.93;0.65;;;;;;;;;;5035566;28;20042;-62
2023/07/17 01:12:24;;;;;;;1.27;0.82;;;;;;;;;;5036295;28;20535;-62
2023/07/17 01:14:50;;;;;;;1.58;0.73;;;;;;;;;;5035737;28;20032;-62
2023/07/17 01:17:16;;;;;;;1.20;0.77;;;;;;;;;;5037511;28;20037;-62
2023/07/17 01:19:42;;;;;;;3.17;1.13;;;;;;;;;;5036182;28;20436;-62
2023/07/17 01:22:26;;;;;;;1.55;1.05;;;;;;;;;;5036334;28;20059;-63
2023/07/17 01:24:52;;;;;;;2.85;1.48;;;;;;;;;;5035202;28;20041;-63
2023/07/17 01:27:18;;;;;;;2.05;0.90;;;;;;;;;;5037089;28;20048;-63
2023/07/17 01:29:44;;;;;;;4.22;1.70;;;;;;;;;;5033888;28;20463;-62
2023/07/17 01:32:11;;;;;;;3.83;1.27;;;;;;;;;;5039573;28;20052;-62
2023/07/17 01:34:38;;;;;;;2.75;1.40;;;;;;;;;;5040987;28;20045;-62
2023/07/17 01:37:04;;;;;;;3.25;1.40;;;;;;;;;;5042066;28;20048;-62
2023/07/17 01:39:30;;;;;;;3.13;1.30;;;;;;;;;;5042795;28;20052;-62
2023/07/17 01:41:56;;;;;;;1.33;0.88;;;;;;;;;;5042716;28;20413;-62
2023/07/17 01:44:27;;;;;;;4.15;1.67;;;;;;;;;;5042911;28;20041;-62
2023/07/17 01:46:53;;;;;;;1.65;0.90;;;;;;;;;;5043268;28;20405;-62
2023/07/17 01:49:19;;;;;;;2.65;1.00;;;;;;;;;;5045588;28;20520;-62
2023/07/17 01:51:45;;;;;;;2.22;1.23;;;;;;;;;;5042928;28;20047;-62
2023/07/17 01:54:12;;;;;;;1.33;0.98;;;;;;;;;;5039249;28;20047;-63
2023/07/17 01:56:38;;;;;;;1.52;1.17;;;;;;;;;;5043438;28;20171;-63
2023/07/17 01:59:04;;;;;;;1.25;1.05;;;;;;;;;;5039664;28;20505;-62
2023/07/17 02:01:31;;;;;;;1.42;0.80;;;;;;;;;;5045182;28;20052;-62
2023/07/17 02:03:57;;;;;;;2.17;0.80;;;;;;;;;;5042322;28;20144;-62
2023/07/17 02:06:23;;;;;;;1.63;0.80;;;;;;;;;;5040182;28;20056;-62
2023/07/17 02:08:49;;;;;;;1.10;0.80;;;;;;;;;;5041258;28;20037;-62
2023/07/17 02:11:15;;;;;;;0.77;0.50;;;;;;;;;;5045555;28;20045;-63
2023/07/17 02:13:41;;;;;;;1.65;0.70;;;;;;;;;;5045400;28;20045;-63
2023/07/17 02:16:07;;;;;;;1.77;0.73;;;;;;;;;;5039222;28;20350;-63
2023/07/17 02:18:33;;;;;;;1.20;0.70;;;;;;;;;;5043143;28;20604;-63
2023/07/17 02:21:00;;;;;;;1.92;0.63;;;;;;;;;;5044575;28;20069;-62
2023/07/17 02:23:26;;;;;;;0.60;0.60;;;;;;;;;;5043227;28;20079;-62
2023/07/17 02:25:52;;;;;;;1.13;0.60;;;;;;;;;;5042171;28;20063;-62
2023/07/17 02:28:18;;;;;;;1.27;0.75;;;;;;;;;;5041969;28;20041;-63
2023/07/17 02:30:44;;;;;;;0.88;0.60;;;;;;;;;;5040717;28;20544;-63
2023/07/17 02:33:11;;;;;;;0.47;0.40;;;;;;;;;;5041201;28;20051;-63
2023/07/17 02:35:37;;;;;;;1.38;0.85;;;;;;;;;;5039585;28;20638;-63
2023/07/17 02:38:03;;;;;;;0.70;0.50;;;;;;;;;;5041544;28;20076;-63
2023/07/17 02:40:29;;;;;;;1.45;1.00;;;;;;;;;;5038054;28;20047;-63
2023/07/17 02:42:55;;;;;;;1.25;0.80;;;;;;;;;;5041953;28;20037;-62
2023/07/17 02:45:21;;;;;;;1.80;1.20;;;;;;;;;;5042016;28;20036;-63
2023/07/17 02:47:47;;;;;;;1.17;0.90;;;;;;;;;;5039225;28;20064;-63
2023/07/17 02:50:14;;;;;;;1.27;0.73;;;;;;;;;;5040426;28;20055;-63
2023/07/17 02:52:41;;;;;;;0.57;0.50;;;;;;;;;;5036992;28;20049;-62
2023/07/17 02:55:07;;;;;;;0.82;0.60;;;;;;;;;;5036768;28;20452;-62
2023/07/17 02:57:37;;;;;;;1.15;0.63;;;;;;;;;;5040600;28;20041;-62
2023/07/17 03:00:08;;;;;;;0.90;0.70;;;;;;;;;;5040013;28;20049;-62
2023/07/17 03:02:34;;;;;;;3.22;1.08;;;;;;;;;;5042597;28;20048;-62
2023/07/17 03:05:04;;;;;;;1.80;1.10;;;;;;;;;;5037779;28;20041;-62
2023/07/17 03:07:30;;;;;;;1.42;1.20;;;;;;;;;;5039399;28;20049;-62
2023/07/17 03:09:56;;;;;;;1.17;0.75;;;;;;;;;;5038220;28;20059;-62
2023/07/17 03:12:22;;;;;;;2.88;1.08;;;;;;;;;;5038406;28;20552;-62
2023/07/17 03:14:48;;;;;;;4.15;1.60;;;;;;;;;;5037763;28;20048;-62
2023/07/17 03:17:14;;;;;;;4.45;1.02;;;;;;;;;;5041388;28;20444;-63
2023/07/17 03:19:40;;;;;;;1.98;0.93;;;;;;;;;;5035666;28;20044;-63
2023/07/17 03:22:06;;;;;;;1.40;0.98;;;;;;;;;;5036073;28;20034;-63
2023/07/17 03:24:32;;;;;;;2.17;1.35;;;;;;;;;;5039620;28;20747;-62
2023/07/17 03:27:01;;;;;;;2.17;1.15;;;;;;;;;;5039522;28;20041;-62
2023/07/17 03:29:27;;;;;;;2.80;1.50;;;;;;;;;;5039294;28;20080;-62
2023/07/17 03:31:53;;;;;;;2.40;1.63;;;;;;;;;;5037884;28;20073;-62
2023/07/17 03:34:19;;;;;;;2.05;1.10;;;;;;;;;;5038310;28;20064;-63
2023/07/17 03:36:45;;;;;;;1.60;0.93;;;;;;;;;;5036121;28;20531;-62
2023/07/17 03:39:11;;;;;;;1.30;0.90;;;;;;;;;;5036612;28;20045;-62
2023/07/17 03:41:38;;;;;;;1.60;1.08;;;;;;;;;;5038245;28;20045;-62
2023/07/17 03:44:05;;;;;;;1.98;0.82;;;;;;;;;;5034296;28;20045;-62
2023/07/17 03:46:32;;;;;;;1.02;0.88;;;;;;;;;;5036869;28;20045;-62
2023/07/17 03:48:58;;;;;;;1.00;0.70;;;;;;;;;;5036845;28;20083;-62
2023/07/17 03:51:24;;;;;;;1.60;0.80;;;;;;;;;;5037054;28;20037;-62
2023/07/17 03:53:50;;;;;;;0.82;0.50;;;;;;;;;;5034896;28;20043;-62
2023/07/17 03:56:17;;;;;;;2.42;1.10;;;;;;;;;;5035310;28;20076;-63
2023/07/17 03:58:43;;;;;;;1.77;0.93;;;;;;;;;;5039947;28;20065;-63
2023/07/17 04:01:09;;;;;;;2.15;0.93;;;;;;;;;;5038951;28;20042;-62
2023/07/17 04:03:35;;;;;;;2.05;1.25;;;;;;;;;;5035985;28;20137;-62
2023/07/17 04:06:01;;;;;;;0.88;0.73;;;;;;;;;;5038189;28;20128;-63
2023/07/17 04:08:27;;;;;;;1.60;1.05;;;;;;;;;;5039955;28;20486;-62
2023/07/17 04:10:53;;;;;;;1.65;1.15;;;;;;;;;;5033218;28;20038;-62
2023/07/17 04:13:19;;;;;;;1.00;0.77;;;;;;;;;;5038717;28;20061;-63
2023/07/17 04:15:45;;;;;;;1.52;1.00;;;;;;;;;;5032467;28;20075;-62
2023/07/17 04:18:11;;;;;;;2.65;1.40;;;;;;;;;;5036037;28;20072;-62
2023/07/17 04:20:42;;;;;;;2.53;1.38;;;;;;;;;;5038414;28;21043;-62
2023/07/17 04:23:08;;;;;;;2.63;1.10;;;;;;;;;;5033693;28;20049;-63
2023/07/17 04:25:35;;;;;;;1.25;1.08;;;;;;;;;;5034951;28;20040;-63
2023/07/17 04:28:02;;;;;;;1.98;1.20;;;;;;;;;;5037880;28;20573;-62
2023/07/17 04:30:28;;;;;;;3.15;1.70;;;;;;;;;;5038897;28;20052;-62
2023/07/17 04:32:54;;;;;;;2.13;1.10;;;;;;;;;;5034869;28;20037;-62
2023/07/17 04:35:20;;;;;;;4.55;1.15;;;;;;;;;;5040561;28;20397;-62
2023/07/17 04:37:46;;;;;;;3.72;1.52;;;;;;;;;;5037942;28;20064;-62
2023/07/17 04:40:12;;;;;;;2.47;1.20;;;;;;;;;;5035434;28;20107;-63
2023/07/17 04:42:39;;;;;;;2.28;1.52;;;;;;;;;;5036844;28;20049;-62
2023/07/17 04:45:05;;;;;;;5.43;1.75;;;;;;;;;;5038254;28;20045;-62
2023/07/17 04:47:32;;;;;;;3.25;1.73;;;;;;;;;;5036500;28;20513;-63
2023/07/17 04:49:58;;;;;;;2.10;1.60;;;;;;;;;;5037000;28;20170;-63
2023/07/17 04:52:24;;;;;;;3.05;1.83;;;;;;;;;;5039411;28;20037;-62
2023/07/17 04:54:51;;;;;;;4.15;1.90;;;;;;;;;;5037431;28;20607;-62
2023/07/17 04:57:17;;;;;;;3.72;1.92;;;;;;;;;;5036268;28;20053;-62
2023/07/17 04:59:43;;;;;;;3.08;1.40;;;;;;;;;;5037295;28;20045;-62
2023/07/17 05:02:09;;;;;;;3.38;1.50;;;;;;;;;;5032766;28;20103;-62
2023/07/17 05:04:35;;;;;;;5.60;1.88;;;;;;;;;;5037854;28;20069;-62
2023/07/17 05:07:01;;;;;;;2.67;1.48;;;;;;;;;;5036727;28;20085;-62
2023/07/17 05:09:27;;;;;;;4.15;1.40;;;;;;;;;;5036159;28;20049;-62
2023/07/17 05:11:54;;;;;;;1.77;1.27;;;;;;;;;;5038966;28;20203;-63
2023/07/17 05:14:20;;;;;;;2.10;1.10;;;;;;;;;;5035821;28;20076;-63
2023/07/17 05:16:46;;;;;;;3.53;1.45;;;;;;;;;;5036758;28;20041;-62
2023/07/17 05:19:12;;;;;;;2.70;1.80;;;;;;;;;;5034755;28;20040;-62
2023/07/17 05:21:38;;;;;;;3.35;1.55;;;;;;;;;;5037497;28;20144;-62
2023/07/17 05:24:04;;;;;;;4.63;2.05;;;;;;;;;;5034155;28;20041;-62
2023/07/17 05:26:31;;;;;;;4.10;2.10;;;;;;;;;;5036654;28;20528;-62
2023/07/17 05:28:57;;;;;;;3.83;1.75;;;;;;;;;;5036885;28;20052;-62
2023/07/17 05:31:23;;;;;;;4.25;1.80;;;;;;;;;;5035942;28;20037;-62
2023/07/17 05:33:49;;;;;;;1.17;1.10;;;;;;;;;;5035439;28;20052;-62
2023/07/17 05:36:15;;;;;;;2.60;1.42;;;;;;;;;;5035499;28;20037;-62
2023/07/17 05:38:41;;;;;;;7.72;2.70;;;;;;;;;;5034425;28;20065;-62
2023/07/17 05:41:07;;;;;;;6.15;2.65;;;;;;;;;;5039246;28;20083;-62
2023/07/17 05:43:33;;;;;;;4.25;2.38;;;;;;;;;;5034154;28;20625;-62
2023/07/17 05:45:59;;;;;;;3.40;1.90;;;;;;;;;;5037521;28;20136;-62
2023/07/17 05:48:25;;;;;;;7.97;2.45;;;;;;;;;;5037314;28;20402;-62
2023/07/17 05:50:51;;;;;;;3.50;2.38;;;;;;;;;;5034129;28;20128;-62
2023/07/17 05:53:17;;;;;;;3.70;2.45;;;;;;;;;;5035301;28;20052;-62
2023/07/17 05:55:44;;;;;;;5.15;2.75;;;;;;;;;;5032583;28;20052;-62
2023/07/17 05:58:10;;;;;;;4.25;2.33;;;;;;;;;;5036531;28;20039;-62
2023/07/17 06:00:36;;;;;;;5.85;2.58;;;;;;;;;;5038637;28;20389;-63
2023/07/17 06:03:02;;;;;;;5.50;2.13;;;;;;;;;;5034444;28;20074;-62
2023/07/17 06:05:28;;;;;;;8.07;3.25;;;;;;;;;;5039051;28;20045;-62
2023/07/17 06:07:54;;;;;;;4.90;2.63;;;;;;;;;;5034635;28;20041;-62
2023/07/17 06:10:20;;;;;;;11.35;4.65;;;;;;;;;;5038117;28;20041;-62
2023/07/17 06:12:47;;;;;;;7.10;3.35;;;;;;;;;;5034189;28;20072;-62
2023/07/17 06:15:14;;;;;;;7.60;3.00;;;;;;;;;;5035752;28;20095;-62
2023/07/17 06:17:40;;;;;;;3.58;2.75;;;;;;;;;;5036811;28;20059;-63
2023/07/17 06:20:08;;;;;;;5.20;2.85;;;;;;;;;;5035460;28;20080;-62
2023/07/17 06:22:34;;;;;;;4.05;1.98;;;;;;;;;;5040613;28;20052;-62
2023/07/17 06:25:00;;;;;;;3.50;2.53;;;;;;;;;;5039374;28;20103;-62
2023/07/17 06:27:26;;;;;;;5.22;2.83;;;;;;;;;;5039491;28;20077;-62
2023/07/17 06:29:52;;;;;;;5.68;3.28;;;;;;;;;;5034644;28;20076;-62
2023/07/17 06:32:18;;;;;;;5.28;2.47;;;;;;;;;;5033372;28;20045;-62
2023/07/17 06:34:44;;;;;;;4.07;3.30;;;;;;;;;;5034951;28;20049;-62
2023/07/17 06:37:10;;;;;;;8.20;3.67;;;;;;;;;;5037139;28;20453;-62
2023/07/17 06:39:36;;;;;;;4.03;2.38;;;;;;;;;;5040417;28;20056;-62
2023/07/17 06:42:03;;;;;;;7.13;3.20;;;;;;;;;;5039799;28;20048;-62
2023/07/17 06:44:29;;;;;;;5.15;3.08;;;;;;;;;;5040381;28;20048;-62
2023/07/17 06:46:55;;;;;;;7.68;4.22;;;;;;;;;;5038064;28;20041;-62
2023/07/17 06:49:21;;;;;;;7.38;3.58;;;;;;;;;;5041503;28;20083;-62
2023/07/17 06:51:47;;;;;;;4.53;3.33;;;;;;;;;;5036850;28;20045;-63
2023/07/17 06:54:13;;;;;;;5.88;3.70;;;;;;;;;;5037498;28;20044;-63
2023/07/17 06:56:39;;;;;;;6.20;3.13;;;;;;;;;;5042494;28;20033;-62
2023/07/17 06:59:05;;;;;;;6.53;3.78;;;;;;;;;;5040749;28;20067;-62
2023/07/17 07:01:31;;;;;;;8.13;3.50;;;;;;;;;;5042486;28;20481;-62
2023/07/17 07:03:57;;;;;;;7.47;3.17;;;;;;;;;;5043823;28;20520;-62
2023/07/17 07:06:23;;;;;;;8.70;3.30;;;;;;;;;;5031239;28;20331;-63
2023/07/17 07:08:49;;;;;;;4.85;2.70;;;;;;;;;;5039728;28;20084;-63
2023/07/17 07:11:15;;;;;;;2.90;2.42;;;;;;;;;;5039988;28;20040;-63
2023/07/17 07:13:42;;;;;;;4.85;2.92;;;;;;;;;;5034629;28;20049;-62
2023/07/17 07:16:08;;;;;;;6.40;3.72;;;;;;;;;;5045464;28;20079;-62
2023/07/17 07:18:34;;;;;;;5.93;2.90;;;;;;;;;;5041116;28;20300;-62
2023/07/17 07:21:00;;;;;;;4.80;2.92;;;;;;;;;;5039235;28;20044;-62
2023/07/17 07:23:27;;;;;;;6.70;2.60;;;;;;;;;;5038942;28;20059;-63
2023/07/17 07:25:53;;;;;;;5.10;3.00;;;;;;;;;;5038647;28;20519;-63
2023/07/17 07:28:21;;;;;;;5.65;3.13;;;;;;;;;;5038516;28;20037;-62
2023/07/17 07:30:47;;;;;;;4.45;2.50;;;;;;;;;;5044037;28;20080;-62
2023/07/17 07:33:13;;;;;;;4.75;2.60;;;;;;;;;;5037590;28;20041;-62
2023/07/17 07:35:44;;;;;;;5.43;2.97;;;;;;;;;;5039982;28;20055;-63
2023/07/17 07:38:10;;;;;;;5.35;3.10;;;;;;;;;;5044413;28;20055;-63
2023/07/17 07:40:36;;;;;;;5.28;3.28;;;;;;;;;;5043916;28;20083;-63
2023/07/17 07:43:02;;;;;;;9.20;3.63;;;;;;;;;;5028165;28;20042;-57
2023/07/17 07:45:28;;;;;;;4.15;2.17;;;;;;;;;;5030496;28;20041;-57
2023/07/17 07:47:56;;;;;;;2.70;2.05;;;;;;;;;;5046667;28;20045;-59
2023/07/17 07:50:22;;;;;;;3.50;2.58;;;;;;;;;;5045746;28;20044;-61
2023/07/17 07:52:48;;;;;;;3.20;2.58;;;;;;;;;;5046505;28;20049;-62
2023/07/17 07:55:14;;;;;;;2.88;2.28;;;;;;;;;;5046566;28;20044;-64
2023/07/17 07:57:40;;;;;;;4.53;2.00;;;;;;;;;;5034389;28;20033;-64
2023/07/17 08:00:06;;;;;;;3.35;2.00;;;;;;;;;;5026614;28;20386;-64
2023/07/17 08:02:32;;;;;;;2.72;1.80;;;;;;;;;;5025865;28;20075;-64
2023/07/17 08:04:58;;;;;;;3.92;2.20;;;;;;;;;;5031715;28;20052;-64
2023/07/17 08:07:25;;;;;;;2.80;1.90;;;;;;;;;;5041478;28;20037;-64
2023/07/17 08:09:51;;;;;;;2.67;1.90;;;;;;;;;;5044129;28;20040;-64
2023/07/17 08:12:17;;;;;;;4.15;2.10;;;;;;;;;;5045664;28;20096;-64
2023/07/17 08:14:43;;;;;;;2.13;1.42;;;;;;;;;;5046606;28;20087;-64
2023/07/17 08:17:09;;;;;;;1.92;1.50;;;;;;;;;;5044325;28;20037;-64
2023/07/17 08:19:35;;;;;;;2.78;1.80;;;;;;;;;;5045654;28;20037;-64
2023/07/17 08:22:01;;;;;;;2.38;1.48;;;;;;;;;;5026012;28;20049;-64
2023/07/17 08:24:27;;;;;;;3.72;1.85;;;;;;;;;;5024931;28;20041;-64
2023/07/17 08:26:54;;;;;;;1.92;1.73;;;;;;;;;;5026405;28;20056;-65
2023/07/17 08:29:20;;;;;;;3.67;2.22;;;;;;;;;;5025784;28;20068;-63
2023/07/17 08:31:46;;;;;;;3.17;1.83;;;;;;;;;;5042307;28;20447;-63
2023/07/17 08:34:12;;;;;;;2.20;1.33;;;;;;;;;;5045505;28;20037;-63
2023/07/17 08:36:38;;;;;;;1.98;1.45;;;;;;;;;;5045202;28;20074;-63
2023/07/17 08:39:05;;;;;;;2.58;1.48;;;;;;;;;;5045591;28;20509;-63
2023/07/17 08:41:31;;;;;;;4.15;1.70;;;;;;;;;;5044079;28;20049;-63
2023/07/17 08:43:58;;;;;;;4.50;1.77;;;;;;;;;;5042863;28;20076;-63
2023/07/17 08:46:24;;;;;;;3.05;1.77;;;;;;;;;;5043197;28;20044;-63
2023/07/17 08:48:52;;;;;;;2.72;1.80;;;;;;;;;;5042464;28;20052;-63
2023/07/17 08:51:19;;;;;;;3.67;2.00;;;;;;;;;;5030973;28;20052;-63
2023/07/17 08:53:45;;;;;;;2.58;1.88;;;;;;;;;;5039168;28;20044;-63
2023/07/17 08:56:12;;;;;;;2.70;1.42;;;;;;;;;;5028117;28;20455;-63
2023/07/17 08:58:40;;;;;;;4.97;2.17;;;;;;;;;;5027763;28;20115;-64
2023/07/17 09:01:07;;;;;;;4.35;1.83;;;;;;;;;;5041543;28;20043;-63
2023/07/17 09:03:36;;;;;;;3.92;1.45;;;;;;;;;;5044236;28;20580;-63
2023/07/17 09:06:02;;;;;;;3.20;1.92;;;;;;;;;;5043145;28;20572;-64
2023/07/17 09:08:28;;;;;;;3.78;1.77;;;;;;;;;;5044059;28;20044;-63
2023/07/17 09:11:10;;;;;;;2.85;1.55;;;;;;;;;;5044280;28;20037;-63
2023/07/17 09:13:39;;;;;;;1.67;1.57;;;;;;;;;;5042971;28;20049;-63
2023/07/17 09:16:13;;;;;;;3.22;1.70;;;;;;;;;;5043758;28;20040;-64
2023/07/17 09:18:40;;;;;;;3.63;1.70;;;;;;;;;;5043407;28;20543;-63
2023/07/17 09:21:06;;;;;;;3.55;1.92;;;;;;;;;;5043041;28;20037;-63
2023/07/17 09:23:39;;;;;;;2.53;1.55;;;;;;;;;;5041982;28;20041;-63
2023/07/17 09:26:05;;;;;;;5.15;2.05;;;;;;;;;;5043933;28;20436;-63
2023/07/17 09:28:36;;;;;;;3.60;1.77;;;;;;;;;;5043785;28;20075;-63
2023/07/17 09:31:02;;;;;;;4.77;1.77;;;;;;;;;;5045223;28;20076;-64
2023/07/17 09:33:28;;;;;;;4.47;1.70;;;;;;;;;;5044668;28;20120;-63
2023/07/17 09:35:56;;;;;;;8.02;1.77;;;;;;;;;;5043985;28;20045;-64
2023/07/17 09:38:25;;;;;;;3.80;1.55;;;;;;;;;;5044604;28;20120;-63
2023/07/17 09:40:52;;;;;;;2.30;1.40;;;;;;;;;;5044201;28;20037;-63
2023/07/17 09:43:30;;;;;;;3.80;1.73;;;;;;;;;;5044582;28;20045;-63
2023/07/17 09:46:00;;;;;;;6.82;1.98;;;;;;;;;;5044477;28;20049;-63
2023/07/17 09:48:30;;;;;;;5.25;1.98;;;;;;;;;;5043470;28;20559;-64
2023/07/17 09:50:59;;;;;;;1.83;1.30;;;;;;;;;;5044964;28;20036;-64
2023/07/17 09:53:25;;;;;;;2.85;1.65;;;;;;;;;;5044317;28;20243;-64
2023/07/17 09:55:53;;;;;;;3.15;1.27;;;;;;;;;;5046284;28;20055;-64
2023/07/17 09:58:19;;;;;;;2.22;1.30;;;;;;;;;;5048250;28;20055;-64
2023/07/17 10:00:48;;;;;;;1.83;0.90;;;;;;;;;;5049108;28;20041;-64
2023/07/17 10:03:17;;;;;;;1.00;0.90;;;;;;;;;;5048020;28;20033;-64
2023/07/17 10:05:43;;;;;;;2.53;1.08;;;;;;;;;;5039635;28;20063;-64
2023/07/17 10:08:11;;;;;;;5.72;1.33;;;;;;;;;;5035312;28;20072;-64
2023/07/17 10:10:37;;;;;;;2.03;1.40;;;;;;;;;;5037064;28;20076;-63
2023/07/17 10:13:04;;;;;;;2.65;1.77;;;;;;;;;;5029961;28;20136;-64
2023/07/17 10:15:30;;;;;;;2.70;1.30;;;;;;;;;;5037436;28;20112;-63
2023/07/17 10:17:59;;;;;;;5.90;1.58;;;;;;;;;;5032061;28;20486;-63
2023/07/17 10:20:26;;;;;;;6.15;1.58;;;;;;;;;;5039791;28;20284;-64
2023/07/17 10:22:52;;;;;;;2.97;1.65;;;;;;;;;;5047590;28;20123;-64
2023/07/17 10:25:18;;;;;;;2.42;1.60;;;;;;;;;;5036168;28;20033;-63
2023/07/17 10:27:45;;;;;;;4.18;1.90;;;;;;;;;;5046941;28;20128;-63
2023/07/17 10:30:26;;;;;;;2.75;1.40;;;;;;;;;;5045443;28;20464;-64
2023/07/17 10:33:11;;;;;;;2.47;1.23;;;;;;;;;;5039191;28;20032;-64
2023/07/17 10:35:46;;;;;;;2.92;1.35;;;;;;;;;;5047212;28;20114;-64
2023/07/17 10:38:12;;;;;;;3.90;1.38;;;;;;;;;;5025390;28;20456;-64
2023/07/17 10:40:38;;;;;;;2.47;1.92;;;;;;;;;;5028057;28;20073;-64
2023/07/17 10:43:15;;;;;;;5.07;1.73;;;;;;;;;;5043822;28;20036;-64
2023/07/17 10:45:41;;;;;;;3.58;1.55;;;;;;;;;;5041486;28;20037;-63
2023/07/17 10:48:07;;;;;;;4.47;1.90;;;;;;;;;;5037787;28;20412;-63
2023/07/17 10:50:33;;;;;;;2.08;1.20;;;;;;;;;;5037178;28;20044;-63
2023/07/17 10:53:09;;;;;;;3.10;1.23;;;;;;;;;;5030556;28;20062;-63
2023/07/17 10:55:35;;;;;;;6.10;1.60;;;;;;;;;;5028066;28;20049;-63
2023/07/17 10:58:01;;;;;;;3.67;1.80;;;;;;;;;;5027759;28;20041;-63
2023/07/17 11:00:28;;;;;;;3.85;1.77;;;;;;;;;;5038765;28;20081;-63
2023/07/17 11:02:58;;;;;;;1.73;1.38;;;;;;;;;;5029725;28;20038;-63
2023/07/17 11:05:24;;;;;;;1.58;1.48;;;;;;;;;;5038228;28;20049;-63
2023/07/17 11:07:50;;;;;;;2.15;1.60;;;;;;;;;;5028394;28;20048;-63
2023/07/17 11:10:17;;;;;;;3.00;1.48;;;;;;;;;;5046124;28;20049;-63
2023/07/17 11:12:43;;;;;;;2.88;1.60;;;;;;;;;;5046861;28;20063;-63
2023/07/17 11:15:16;;;;;;;2.63;1.35;;;;;;;;;;5042757;28;20533;-63
2023/07/17 11:17:42;;;;;;;2.22;1.20;;;;;;;;;;5045022;28;20028;-63
2023/07/17 11:20:08;;;;;;;2.78;1.30;;;;;;;;;;5039571;28;20124;-63
2023/07/17 11:22:36;;;;;;;1.50;1.40;;;;;;;;;;5042392;28;20041;-63
2023/07/17 11:25:03;;;;;;;1.75;1.60;;;;;;;;;;5039337;28;20094;-63
2023/07/17 11:27:29;;;;;;;2.15;1.60;;;;;;;;;;5040601;28;20032;-63
2023/07/17 11:29:55;;;;;;;2.95;1.65;;;;;;;;;;5038988;28;20041;-63
2023/07/17 11:32:21;;;;;;;1.92;1.30;;;;;;;;;;5042064;28;20041;-63
2023/07/17 11:34:54;;;;;;;3.30;1.83;;;;;;;;;;5043932;28;20045;-63
2023/07/17 11:37:30;;;;;;;2.50;1.52;;;;;;;;;;5037165;28;20106;-63
2023/07/17 11:39:56;;;;;;;2.92;2.10;;;;;;;;;;5041854;28;20077;-63
2023/07/17 11:42:22;;;;;;;2.35;1.25;;;;;;;;;;5041352;28;20081;-63
2023/07/17 11:44:58;;;;;;;3.15;1.90;;;;;;;;;;5042492;28;20585;-63
2023/07/17 11:47:25;;;;;;;2.17;1.52;;;;;;;;;;5041955;28;20045;-63
2023/07/17 11:49:53;;;;;;;2.25;1.75;;;;;;;;;;5045821;28;20048;-63
2023/07/17 11:52:19;;;;;;;3.50;1.92;;;;;;;;;;5041553;28;20413;-62
2023/07/17 11:54:45;;;;;;;3.38;1.83;;;;;;;;;;5042519;28;20043;-63
2023/07/17 11:57:12;;;;;;;9.77;2.00;;;;;;;;;;5034226;28;20052;-63
2023/07/17 11:59:38;;;;;;;3.00;1.60;;;;;;;;;;5029589;28;20345;-63
2023/07/17 12:02:04;;;;;;;1.75;1.17;;;;;;;;;;5044436;28;20044;-63
2023/07/17 12:04:41;;;;;;;4.00;1.77;;;;;;;;;;5043061;28;20033;-63
2023/07/17 12:07:18;;;;;;;2.45;1.10;;;;;;;;;;5041856;28;20033;-63
2023/07/17 12:09:44;;;;;;;3.08;1.55;;;;;;;;;;5045024;28;20040;-63
2023/07/17 12:12:10;;;;;;;1.50;1.30;;;;;;;;;;5039923;28;20055;-63
2023/07/17 12:14:36;;;;;;;3.30;1.80;;;;;;;;;;5044841;28;20092;-63
2023/07/17 12:17:02;;;;;;;2.72;1.83;;;;;;;;;;5039633;28;20064;-63
2023/07/17 12:19:28;;;;;;;2.55;1.52;;;;;;;;;;5041316;28;20477;-63
2023/07/17 12:21:54;;;;;;;2.30;1.73;;;;;;;;;;5035943;28;20096;-63
2023/07/17 12:24:20;;;;;;;2.03;1.65;;;;;;;;;;5036300;28;20493;-63
2023/07/17 12:26:46;;;;;;;3.28;1.70;;;;;;;;;;5039492;28;20152;-63
2023/07/17 12:29:12;;;;;;;2.25;1.48;;;;;;;;;;5039216;28;20152;-63
2023/07/17 12:31:38;;;;;;;3.50;1.60;;;;;;;;;;5038779;28;20068;-63
2023/07/17 12:34:04;;;;;;;1.83;1.35;;;;;;;;;;5029680;28;20032;-63
2023/07/17 12:36:30;;;;;;;2.60;1.70;;;;;;;;;;5036238;28;20485;-63
2023/07/17 12:39:11;;;;;;;2.65;1.73;;;;;;;;;;5038831;28;20418;-63
2023/07/17 12:41:37;;;;;;;2.92;1.63;;;;;;;;;;5035710;28;20045;-63
2023/07/17 12:44:03;;;;;;;1.55;1.33;;;;;;;;;;5036220;28;20041;-63
2023/07/17 12:46:29;;;;;;;2.88;1.25;;;;;;;;;;5040984;28;20045;-63
2023/07/17 12:48:55;;;;;;;1.38;1.27;;;;;;;;;;5035372;28;20048;-63
2023/07/17 12:51:21;;;;;;;2.42;1.77;;;;;;;;;;5033197;28;20509;-64
2023/07/17 12:53:47;;;;;;;2.65;1.10;;;;;;;;;;5035532;28;20044;-64
2023/07/17 12:56:13;;;;;;;2.20;1.50;;;;;;;;;;5030420;28;20543;-64
2023/07/17 12:58:39;;;;;;;1.40;1.20;;;;;;;;;;5029562;28;20090;-64
2023/07/17 13:01:05;;;;;;;1.77;1.52;;;;;;;;;;5028243;28;20077;-63
2023/07/17 13:03:31;;;;;;;2.83;1.67;;;;;;;;;;5032803;28;20044;-63
2023/07/17 13:05:57;;;;;;;2.20;1.60;;;;;;;;;;5029925;28;20041;-63
2023/07/17 13:08:23;;;;;;;3.53;1.83;;;;;;;;;;5035341;28;20033;-63
2023/07/17 13:10:49;;;;;;;3.75;1.60;;;;;;;;;;5035143;28;20044;-63
2023/07/17 13:13:15;;;;;;;2.88;1.23;;;;;;;;;;5033410;28;20111;-63
2023/07/17 13:15:41;;;;;;;2.38;1.35;;;;;;;;;;5031605;28;20041;-63
2023/07/17 13:18:07;;;;;;;1.70;0.75;;;;;;;;;;5034469;28;20048;-64
2023/07/17 13:20:33;;;;;;;1.83;1.23;;;;;;;;;;5034722;28;20108;-63
2023/07/17 13:22:59;;;;;;;2.95;1.45;;;;;;;;;;5030883;28;20042;-63
2023/07/17 13:25:25;;;;;;;2.40;1.15;;;;;;;;;;5035312;28;20765;-64
2023/07/17 13:27:51;;;;;;;2.45;1.40;;;;;;;;;;5033272;28;20551;-64
2023/07/17 13:30:17;;;;;;;2.53;1.48;;;;;;;;;;5037695;28;20095;-64
2023/07/17 13:32:43;;;;;;;3.20;1.60;;;;;;;;;;5039629;28;20041;-64
2023/07/17 13:35:09;;;;;;;4.05;1.40;;;;;;;;;;5040267;28;20525;-64
2023/07/17 13:37:35;;;;;;;2.45;1.20;;;;;;;;;;5043469;28;20041;-64
2023/07/17 13:40:01;;;;;;;2.22;1.33;;;;;;;;;;5024896;28;20445;-64
2023/07/17 13:42:27;;;;;;;2.08;1.40;;;;;;;;;;5025608;28;20298;-63
2023/07/17 13:44:58;;;;;;;1.45;1.05;;;;;;;;;;5027210;28;20038;-63
2023/07/17 13:47:24;;;;;;;1.92;1.35;;;;;;;;;;5033474;28;20041;-63
2023/07/17 13:49:50;;;;;;;2.75;1.10;;;;;;;;;;5033594;28;20086;-63
2023/07/17 13:52:16;;;;;;;2.45;1.17;;;;;;;;;;5031341;28;20098;-63
2023/07/17 13:54:42;;;;;;;2.92;1.40;;;;;;;;;;5022842;28;20045;-63
2023/07/17 13:57:08;;;;;;;2.03;0.90;;;;;;;;;;5031772;28;20045;-63
2023/07/17 13:59:34;;;;;;;2.60;1.23;;;;;;;;;;5031636;28;20091;-64
2023/07/17 14:02:00;;;;;;;2.13;1.70;;;;;;;;;;5027467;28;20049;-63
2023/07/17 14:04:26;;;;;;;4.45;1.25;;;;;;;;;;5023981;28;20099;-63
2023/07/17 14:06:52;;;;;;;2.55;1.38;;;;;;;;;;5028061;28;20052;-63
2023/07/17 14:09:18;;;;;;;3.88;1.58;;;;;;;;;;5025798;28;20041;-63
2023/07/17 14:11:44;;;;;;;1.98;1.10;;;;;;;;;;5024129;28;20050;-63
2023/07/17 14:14:11;;;;;;;2.58;1.15;;;;;;;;;;5027429;28;20500;-63
2023/07/17 14:16:37;;;;;;;1.23;0.85;;;;;;;;;;5027269;28;20043;-63
2023/07/17 14:19:03;;;;;;;2.15;1.17;;;;;;;;;;5024764;28;20041;-63
2023/07/17 14:21:29;;;;;;;2.13;1.10;;;;;;;;;;5023913;28;20052;-63
2023/07/17 14:23:55;;;;;;;1.95;1.23;;;;;;;;;;5023600;28;20164;-64
2023/07/17 14:26:21;;;;;;;2.17;1.30;;;;;;;;;;5023817;28;20072;-64
2023/07/17 14:28:47;;;;;;;1.13;1.00;;;;;;;;;;5023935;28;20085;-63
2023/07/17 14:31:13;;;;;;;1.67;1.00;;;;;;;;;;5023344;28;20081;-63
2023/07/17 14:33:39;;;;;;;1.23;0.80;;;;;;;;;;5023908;28;20037;-63
2023/07/17 14:36:05;;;;;;;1.10;1.00;;;;;;;;;;5024404;28;20065;-63
2023/07/17 14:38:36;;;;;;;3.03;1.65;;;;;;;;;;5028078;28;20060;-63
2023/07/17 14:41:02;;;;;;;3.70;1.52;;;;;;;;;;5042478;28;20501;-63